createdAt,value
2023-04-17T00:09:51.014Z,73.25
2023-04-17T00:19:57.985Z,73.57
2023-04-17T00:30:05.264Z,73.33
2023-04-17T00:40:14.060Z,73.77
2023-04-17T00:50:19.937Z,73.72
2023-04-17T01:00:25.715Z,73.87
2023-04-17T01:10:32.856Z,74.04
2023-04-17T01:31:21.857Z,74.57
2023-04-17T01:41:29.796Z,74.55
2023-04-17T01:51:37.347Z,74.96
2023-04-17T02:01:44.447Z,75.19
2023-04-17T02:11:51.675Z,75.20
2023-04-17T02:21:58.652Z,75.38
2023-04-17T02:32:05.627Z,75.65
2023-04-17T02:42:12.800Z,76.25
2023-04-17T02:52:19.841Z,76.64
2023-04-17T03:02:27.754Z,76.90
2023-04-17T03:12:35.273Z,76.95
2023-04-17T03:22:42.582Z,77.30
2023-04-17T03:32:49.956Z,77.37
2023-04-17T03:42:56.127Z,77.57
2023-04-17T03:53:03.215Z,77.73
2023-04-17T04:03:10.324Z,78.10
2023-04-17T04:13:17.919Z,78.33
2023-04-17T04:23:25.186Z,78.43
2023-04-17T04:33:33.318Z,78.89
2023-04-17T04:43:40.672Z,79.65
2023-04-17T04:53:47.778Z,80.55
2023-04-17T05:03:55.136Z,80.87
2023-04-17T05:14:02.315Z,80.87
2023-04-17T05:24:07.363Z,81.06
2023-04-17T05:34:14.426Z,81.41
2023-04-17T05:44:21.489Z,81.97
2023-04-17T05:54:27.007Z,82.81
2023-04-17T06:04:34.586Z,83.06
2023-04-17T06:14:42.470Z,83.43
2023-04-17T06:24:49.759Z,84.40
2023-04-17T06:34:59.579Z,85.02
2023-04-17T06:45:07.270Z,85.58
2023-04-17T06:55:15.045Z,85.68
2023-04-17T07:05:22.232Z,86.07
2023-04-17T07:15:31.054Z,85.89
2023-04-17T07:25:37.130Z,86.06
2023-04-17T07:35:45.973Z,85.93
2023-04-17T07:45:53.789Z,85.94
2023-04-17T07:56:00.608Z,86.33
2023-04-17T08:06:08.723Z,86.49
2023-04-17T08:16:15.962Z,86.48
2023-04-17T08:26:23.335Z,86.97
2023-04-17T08:36:31.422Z,86.58
2023-04-17T08:46:41.054Z,86.78
2023-04-17T08:56:48.567Z,87.08
2023-04-17T09:06:54.754Z,86.85
2023-04-17T09:17:01.824Z,86.70
2023-04-17T09:27:20.535Z,86.81
2023-04-17T09:37:30.208Z,86.85
2023-04-17T09:47:37.945Z,86.58
2023-04-17T09:57:45.962Z,85.99
2023-04-17T10:07:53.279Z,85.63
2023-04-17T10:18:21.992Z,84.79
2023-04-17T10:28:47.782Z,84.34
2023-04-17T10:39:03.972Z,83.01
2023-04-17T10:49:12.245Z,82.28
2023-04-17T10:59:21.835Z,80.93
2023-04-17T11:09:29.789Z,79.72
2023-04-17T11:19:37.118Z,78.24
2023-04-17T11:29:45.874Z,77.78
2023-04-17T11:39:53.055Z,76.86
2023-04-17T11:50:00.424Z,76.03
2023-04-17T12:00:16.743Z,74.97
2023-04-17T12:10:24.811Z,74.31
2023-04-17T12:20:32.119Z,74.34
2023-04-17T12:30:40.020Z,73.89
2023-04-17T12:40:47.041Z,73.82
2023-04-17T12:50:54.730Z,73.66
2023-04-17T13:01:02.053Z,73.54
2023-04-17T13:11:09.400Z,73.40
2023-04-17T13:21:16.763Z,73.25
2023-04-17T13:31:23.786Z,73.04
2023-04-17T13:41:30.935Z,73.03
2023-04-17T13:51:37.059Z,72.81
2023-04-17T14:01:44.212Z,72.58
2023-04-17T14:11:51.613Z,73.61
2023-04-17T14:21:58.990Z,74.28
2023-04-17T14:32:06.670Z,74.50
2023-04-17T14:42:13.976Z,74.45
2023-04-17T14:52:21.608Z,74.45
2023-04-17T15:02:28.805Z,75.02
2023-04-17T15:12:36.847Z,75.32
2023-04-17T15:22:44.226Z,75.69
2023-04-17T15:32:51.528Z,76.03
2023-04-17T15:42:59.411Z,76.24
2023-04-17T15:53:08.913Z,76.43
2023-04-17T16:03:16.410Z,76.69
2023-04-17T16:13:23.776Z,77.31
2023-04-17T16:23:31.050Z,77.72
2023-04-17T16:33:39.920Z,77.89
2023-04-17T16:43:47.362Z,78.41
2023-04-17T16:53:54.707Z,79.21
2023-04-17T17:04:01.801Z,79.89
2023-04-17T17:14:09.033Z,81.28
2023-04-17T17:24:16.288Z,81.50
2023-04-17T17:34:26.496Z,81.61
2023-04-17T17:54:42.175Z,82.61
2023-04-17T18:04:49.621Z,82.85
2023-04-17T18:14:56.870Z,82.52
2023-04-17T18:25:02.666Z,82.99
2023-04-17T18:35:11.069Z,83.25
2023-04-17T18:45:18.239Z,83.21
2023-04-17T18:55:24.288Z,83.15
2023-04-17T19:05:31.410Z,83.53
2023-04-17T19:15:39.531Z,84.21
2023-04-17T19:25:52.526Z,84.57
2023-04-17T19:36:01.006Z,85.36
2023-04-17T19:46:08.835Z,86.34
2023-04-17T19:56:16.399Z,86.33
2023-04-17T20:06:23.429Z,86.85
2023-04-17T20:16:30.972Z,88.01
2023-04-17T20:26:38.154Z,88.86
2023-04-17T20:36:45.699Z,89.26
2023-04-17T20:46:52.740Z,89.73
2023-04-17T20:57:00.037Z,90.24
2023-04-17T21:07:06.975Z,91.02
2023-04-17T21:17:14.494Z,91.29
2023-04-17T21:27:21.656Z,91.50
2023-04-17T21:37:29.020Z,92.15
2023-04-17T22:07:53.680Z,92.34
2023-04-17T22:18:02.500Z,92.67
2023-04-17T22:28:08.963Z,93.12
2023-04-17T22:38:15.911Z,93.18
2023-04-17T22:48:24.520Z,93.16
2023-04-17T22:58:32.654Z,93.45
2023-04-17T23:08:40.229Z,93.60
2023-04-17T23:18:47.143Z,94.07
2023-04-17T23:28:54.453Z,94.00
2023-04-17T23:39:01.924Z,93.98
2023-04-17T23:49:10.076Z,94.81
2023-04-17T23:59:16.507Z,94.84
